ACA1238 EKCH-CYUL
Flight info
| Callsign | ACA1238 |
|---|---|
| Flight time | N/A |
| Altitude | 36000 |
| Route | EKCH/04R N0476F360 GOLG3A GOLGA T506 LAPMA L621 AAL P990 KOVIK DCT RUMOG DCT BEREP DCT MOCHA DCT DOSUN DCT LUSEN/M083F360 DCT 60N020W 60N030W 59N040W 57N048W DCT ENNSO/N0478F360 N770A ANATI Q812 OBTEK DCT TIBOS ROCKT3 CYUL/24R |
| Aircraft | B77W/H-SDE1E2E3FGHIJ2J3J4J5M1RWXY/LB1D1 |
Departure
| Time | N/A |
|---|---|
| Airport | Copenhagen Kastrup Airport (EKCH) |
Arrival
| Time | 2026-05-06 17:28 |
|---|---|
| Airport | Montreal / Pierre Elliott Trudeau International Airport (CYUL) |
| Time | Latitude | Longitude | Altitude | Speed | Heading |
|---|---|---|---|---|---|
| 2026-05-06 17:12 | 45.94110 | -72.43119 | 17512 ft | 328 kts | 237° |
| 2026-05-06 17:12 | 45.92932 | -72.45908 | 17128 ft | 325 kts | 241° |
| 2026-05-06 17:13 | 45.91859 | -72.48748 | 16840 ft | 321 kts | 242° |
| 2026-05-06 17:13 | 45.90816 | -72.51575 | 16509 ft | 318 kts | 242° |
| 2026-05-06 17:13 | 45.89795 | -72.54352 | 16140 ft | 317 kts | 242° |
| 2026-05-06 17:13 | 45.88765 | -72.57142 | 15811 ft | 315 kts | 242° |
| 2026-05-06 17:14 | 45.87734 | -72.59924 | 15457 ft | 314 kts | 242° |
| 2026-05-06 17:14 | 45.86707 | -72.62685 | 15096 ft | 313 kts | 242° |
| 2026-05-06 17:14 | 45.85690 | -72.65409 | 14750 ft | 312 kts | 242° |
| 2026-05-06 17:14 | 45.84666 | -72.68151 | 14409 ft | 311 kts | 242° |
| 2026-05-06 17:15 | 45.83643 | -72.70882 | 14060 ft | 310 kts | 242° |
| 2026-05-06 17:15 | 45.82621 | -72.73605 | 13719 ft | 310 kts | 242° |
| 2026-05-06 17:15 | 45.81600 | -72.76325 | 13320 ft | 309 kts | 242° |
| 2026-05-06 17:15 | 45.80582 | -72.79035 | 12949 ft | 307 kts | 242° |
| 2026-05-06 17:16 | 45.79577 | -72.81706 | 12591 ft | 303 kts | 242° |
| 2026-05-06 17:16 | 45.78584 | -72.84345 | 12240 ft | 298 kts | 242° |
| 2026-05-06 17:16 | 45.77608 | -72.86935 | 11921 ft | 294 kts | 242° |
| 2026-05-06 17:16 | 45.76635 | -72.89513 | 11589 ft | 291 kts | 242° |
| 2026-05-06 17:17 | 45.75704 | -72.92016 | 11249 ft | 284 kts | 244° |
| 2026-05-06 17:17 | 45.75015 | -72.94655 | 10887 ft | 281 kts | 252° |
| 2026-05-06 17:17 | 45.74494 | -72.97335 | 10550 ft | 277 kts | 252° |
| 2026-05-06 17:17 | 45.73982 | -72.99971 | 10227 ft | 273 kts | 252° |
| 2026-05-06 17:18 | 45.73482 | -73.02540 | 9923 ft | 269 kts | 252° |
| 2026-05-06 17:18 | 45.72989 | -73.05070 | 9779 ft | 260 kts | 252° |
| 2026-05-06 17:18 | 45.72513 | -73.07504 | 9664 ft | 248 kts | 252° |
| 2026-05-06 17:18 | 45.72052 | -73.09850 | 9361 ft | 244 kts | 252° |
| 2026-05-06 17:19 | 45.71582 | -73.12230 | 8817 ft | 249 kts | 252° |
| 2026-05-06 17:19 | 45.71116 | -73.14590 | 8644 ft | 242 kts | 252° |
| 2026-05-06 17:19 | 45.70668 | -73.16851 | 8291 ft | 241 kts | 252° |
| 2026-05-06 17:19 | 45.70206 | -73.19176 | 7927 ft | 241 kts | 252° |
| 2026-05-06 17:20 | 45.69751 | -73.21468 | 7636 ft | 239 kts | 252° |
| 2026-05-06 17:20 | 45.69299 | -73.23741 | 7359 ft | 236 kts | 252° |
| 2026-05-06 17:20 | 45.68856 | -73.25967 | 7085 ft | 234 kts | 252° |
| 2026-05-06 17:20 | 45.68415 | -73.28180 | 6925 ft | 226 kts | 252° |
| 2026-05-06 17:21 | 45.68015 | -73.30189 | 6779 ft | 219 kts | 252° |
| 2026-05-06 17:21 | 45.67603 | -73.32253 | 6611 ft | 213 kts | 252° |
| 2026-05-06 17:21 | 45.67186 | -73.34330 | 6182 ft | 219 kts | 252° |
| 2026-05-06 17:21 | 45.66776 | -73.36378 | 5993 ft | 213 kts | 252° |
| 2026-05-06 17:22 | 45.66367 | -73.38419 | 5642 ft | 215 kts | 252° |
| 2026-05-06 17:22 | 45.65954 | -73.40478 | 5355 ft | 214 kts | 251° |
| 2026-05-06 17:22 | 45.65543 | -73.42522 | 5104 ft | 213 kts | 251° |
| 2026-05-06 17:22 | 45.65138 | -73.44541 | 4843 ft | 210 kts | 251° |
| 2026-05-06 17:23 | 45.64740 | -73.46519 | 4588 ft | 208 kts | 252° |
| 2026-05-06 17:23 | 45.64340 | -73.48503 | 4352 ft | 206 kts | 251° |
| 2026-05-06 17:23 | 45.63946 | -73.50458 | 4121 ft | 204 kts | 251° |
| 2026-05-06 17:23 | 45.63551 | -73.52410 | 3869 ft | 203 kts | 251° |
| 2026-05-06 17:24 | 45.62998 | -73.54190 | 3626 ft | 197 kts | 230° |
| 2026-05-06 17:24 | 45.62015 | -73.55533 | 3435 ft | 199 kts | 225° |
| 2026-05-06 17:24 | 45.60984 | -73.56927 | 3216 ft | 207 kts | 225° |
| 2026-05-06 17:24 | 45.59933 | -73.58327 | 2996 ft | 206 kts | 224° |
| 2026-05-06 17:25 | 45.58880 | -73.59718 | 2730 ft | 206 kts | 224° |
| 2026-05-06 17:25 | 45.57833 | -73.61096 | 2489 ft | 203 kts | 223° |
| 2026-05-06 17:25 | 45.56827 | -73.62420 | 2236 ft | 191 kts | 223° |
| 2026-05-06 17:25 | 45.55891 | -73.63652 | 2004 ft | 182 kts | 223° |
| 2026-05-06 17:26 | 45.54959 | -73.64880 | 1845 ft | 184 kts | 223° |
| 2026-05-06 17:26 | 45.54014 | -73.66124 | 1653 ft | 182 kts | 223° |
| 2026-05-06 17:26 | 45.53101 | -73.67323 | 1426 ft | 173 kts | 224° |
| 2026-05-06 17:26 | 45.52247 | -73.68447 | 1118 ft | 159 kts | 223° |
| 2026-05-06 17:27 | 45.51485 | -73.69449 | 890 ft | 140 kts | 223° |
| 2026-05-06 17:27 | 45.50810 | -73.70336 | 791 ft | 132 kts | 223° |
| 2026-05-06 17:27 | 45.50109 | -73.71257 | 583 ft | 140 kts | 221° |
| 2026-05-06 17:27 | 45.49388 | -73.72203 | 401 ft | 141 kts | 222° |
| 2026-05-06 17:28 | 45.48678 | -73.73135 | 257 ft | 139 kts | 223° |
| 2026-05-06 17:28 | 45.47970 | -73.74066 | 118 ft | 137 kts | 223° |
| 2026-05-06 17:28 | 45.47360 | -73.74863 | 115 ft | 95 kts | 222° |
| 2026-05-06 17:28 | 45.47025 | -73.75302 | 112 ft | 43 kts | 223° |
| 2026-05-06 17:29 | 45.46799 | -73.75551 | 112 ft | 39 kts | 206° |
| 2026-05-06 17:29 | 45.46543 | -73.75655 | 108 ft | 38 kts | 193° |
| 2026-05-06 17:29 | 45.46297 | -73.75728 | 109 ft | 22 kts | 186° |
| 2026-05-06 17:29 | 45.46151 | -73.75746 | 107 ft | 17 kts | 216° |
| 2026-05-06 17:30 | 45.46127 | -73.75887 | 107 ft | 15 kts | 267° |
| 2026-05-06 17:30 | 45.46102 | -73.76026 | 108 ft | 15 kts | 218° |
| 2026-05-06 17:30 | 45.46000 | -73.76051 | 110 ft | 15 kts | 176° |
| 2026-05-06 17:30 | 45.45895 | -73.76032 | 109 ft | 15 kts | 172° |
| 2026-05-06 17:31 | 45.45792 | -73.76009 | 110 ft | 15 kts | 165° |
| 2026-05-06 17:31 | 45.45732 | -73.75898 | 110 ft | 15 kts | 89° |
| 2026-05-06 17:31 | 45.45783 | -73.75798 | 110 ft | 9 kts | 34° |
| 2026-05-06 17:31 | 45.45824 | -73.75759 | 110 ft | 0 kts | 33° |
| 2026-05-06 17:33 | 45.45960 | -73.75820 | 109 ft | 0 kts | 144° |